Time;durP1;ratioP1;P1;durP2;ratioP2;P2;SDS_P1;SDS_P2;PMS_P1;PMS_P2;Temp;Humidity;BMP_temperature;BMP_pressure;BME280_temperature;BME280_humidity;BME280_pressure;Samples;Min_cycle;Max_cycle;Signal;HPM_P1;HPM_P2
2023/01/18 00:02:05;;;;;;;5.60;5.10;;;;;;;;;;5094623;28;20189;-60
2023/01/18 00:04:32;;;;;;;4.88;4.47;;;;;;;;;;5094556;28;20191;-60
2023/01/18 00:06:58;;;;;;;5.70;5.20;;;;;;;;;;5094664;28;20196;-60
2023/01/18 00:09:25;;;;;;;6.15;5.28;;;;;;;;;;5094544;28;20580;-60
2023/01/18 00:11:54;;;;;;;7.50;5.40;;;;;;;;;;5094542;28;20185;-59
2023/01/18 00:14:21;;;;;;;7.45;5.10;;;;;;;;;;5094444;28;20217;-59
2023/01/18 00:16:47;;;;;;;5.70;4.30;;;;;;;;;;5094262;28;20239;-59
2023/01/18 00:19:14;;;;;;;7.82;4.70;;;;;;;;;;5094556;28;20540;-60
2023/01/18 00:21:41;;;;;;;6.32;4.70;;;;;;;;;;5094214;28;20659;-59
2023/01/18 00:24:13;;;;;;;5.60;4.80;;;;;;;;;;5094274;28;20267;-59
2023/01/18 00:26:40;;;;;;;5.57;5.10;;;;;;;;;;5094232;28;20193;-59
2023/01/18 00:29:09;;;;;;;7.68;5.80;;;;;;;;;;5093971;28;20239;-60
2023/01/18 00:31:37;;;;;;;6.85;6.07;;;;;;;;;;5094005;28;20194;-60
2023/01/18 00:34:04;;;;;;;8.88;4.95;;;;;;;;;;5094123;28;20204;-59
2023/01/18 00:36:31;;;;;;;5.32;4.82;;;;;;;;;;5094412;28;20193;-59
2023/01/18 00:38:58;;;;;;;5.78;5.18;;;;;;;;;;5093974;28;20189;-59
2023/01/18 00:41:25;;;;;;;6.78;4.97;;;;;;;;;;5093950;28;20232;-59
2023/01/18 00:43:52;;;;;;;6.60;5.90;;;;;;;;;;5093586;28;20216;-60
2023/01/18 00:46:21;;;;;;;6.35;5.00;;;;;;;;;;5094052;28;20189;-59
2023/01/18 00:48:48;;;;;;;5.97;5.40;;;;;;;;;;5093783;28;20259;-60
2023/01/18 00:51:16;;;;;;;7.53;5.28;;;;;;;;;;5093840;28;20225;-60
2023/01/18 00:53:43;;;;;;;8.02;5.45;;;;;;;;;;5093769;28;20191;-60
2023/01/18 00:56:11;;;;;;;6.00;4.85;;;;;;;;;;5093623;28;20198;-60
2023/01/18 00:58:38;;;;;;;12.38;4.82;;;;;;;;;;5092957;28;20778;-60
2023/01/18 01:01:06;;;;;;;9.13;6.10;;;;;;;;;;5093760;28;20294;-60
2023/01/18 01:06:43;;;;;;;5.43;4.93;;;;;;;;;;5093707;28;20274;-59
2023/01/18 01:06:44;;;;;;;5.38;4.82;;;;;;;;;;5093457;28;20552;-60
2023/01/18 01:09:11;;;;;;;7.53;5.00;;;;;;;;;;5093599;28;20221;-60
2023/01/18 01:11:38;;;;;;;7.05;5.40;;;;;;;;;;5093502;28;20193;-60
2023/01/18 01:27:50;;;;;;;5.70;4.78;;;;;;;;;;5093482;28;20196;-59
2023/01/18 01:30:17;;;;;;;5.50;4.97;;;;;;;;;;5093475;28;20198;-59
2023/01/18 01:32:44;;;;;;;5.78;4.85;;;;;;;;;;5093187;28;20619;-59
2023/01/18 01:35:13;;;;;;;5.82;5.22;;;;;;;;;;5093396;28;20197;-59
2023/01/18 01:37:39;;;;;;;6.60;5.22;;;;;;;;;;5093076;28;20670;-59
2023/01/18 01:40:07;;;;;;;7.45;5.05;;;;;;;;;;5092916;28;20207;-59
2023/01/18 01:42:34;;;;;;;6.10;5.50;;;;;;;;;;5093153;28;20189;-60
2023/01/18 01:45:01;;;;;;;5.72;5.22;;;;;;;;;;5092777;28;20671;-59
2023/01/18 01:47:37;;;;;;;7.35;5.30;;;;;;;;;;5092978;28;20189;-59
2023/01/18 01:50:08;;;;;;;5.15;4.65;;;;;;;;;;5093139;28;20307;-59
2023/01/18 01:52:37;;;;;;;4.80;4.30;;;;;;;;;;5093188;28;20196;-60
2023/01/18 01:55:08;;;;;;;5.30;4.85;;;;;;;;;;5093070;28;20649;-59
2023/01/18 01:57:37;;;;;;;4.72;4.25;;;;;;;;;;5092984;28;20190;-59
2023/01/18 02:00:07;;;;;;;5.63;4.50;;;;;;;;;;5092898;28;20276;-60
2023/01/18 02:02:34;;;;;;;5.72;4.90;;;;;;;;;;5092770;28;20197;-59
2023/01/18 02:05:03;;;;;;;7.05;4.43;;;;;;;;;;5092698;28;20189;-60
2023/01/18 02:07:30;;;;;;;7.70;5.95;;;;;;;;;;5092878;28;20191;-59
2023/01/18 02:09:59;;;;;;;6.90;5.03;;;;;;;;;;5092789;28;20227;-59
2023/01/18 02:12:26;;;;;;;4.97;4.45;;;;;;;;;;5095857;28;20197;-60
2023/01/18 02:14:54;;;;;;;6.25;4.55;;;;;;;;;;5096791;28;20189;-59
2023/01/18 02:17:27;;;;;;;6.07;4.45;;;;;;;;;;5096668;28;20202;-59
2023/01/18 02:20:09;;;;;;;4.78;4.25;;;;;;;;;;5096884;28;20181;-59
2023/01/18 02:22:45;;;;;;;4.85;4.40;;;;;;;;;;5096717;28;20530;-59
2023/01/18 02:25:27;;;;;;;5.00;4.50;;;;;;;;;;5096685;28;20276;-59
2023/01/18 02:28:04;;;;;;;6.20;4.85;;;;;;;;;;5096409;28;20193;-60
2023/01/18 02:30:32;;;;;;;7.93;5.03;;;;;;;;;;5096615;28;20223;-59
2023/01/18 02:33:04;;;;;;;6.55;5.07;;;;;;;;;;5096417;28;20235;-59
2023/01/18 02:35:36;;;;;;;4.45;4.05;;;;;;;;;;5096440;28;20555;-59
2023/01/18 02:38:07;;;;;;;5.60;4.72;;;;;;;;;;5096307;28;20193;-59
2023/01/18 02:40:38;;;;;;;5.35;4.85;;;;;;;;;;5096259;28;20197;-59
2023/01/18 02:48:38;;;;;;;6.45;5.10;;;;;;;;;;5096155;28;20753;-60
2023/01/18 02:51:05;;;;;;;5.18;4.75;;;;;;;;;;5096103;28;20189;-60
2023/01/18 02:53:34;;;;;;;5.40;4.15;;;;;;;;;;5096162;28;20220;-60
2023/01/18 02:56:01;;;;;;;4.65;4.25;;;;;;;;;;5096082;28;20555;-60
2023/01/18 02:58:32;;;;;;;4.80;4.05;;;;;;;;;;5095991;28;20189;-60
2023/01/18 03:01:01;;;;;;;6.57;4.20;;;;;;;;;;5095839;28;20196;-59
2023/01/18 03:03:28;;;;;;;6.53;4.38;;;;;;;;;;5095764;28;20606;-60
2023/01/18 03:05:58;;;;;;;4.55;4.15;;;;;;;;;;5096019;28;20646;-60
2023/01/18 03:08:27;;;;;;;5.70;5.00;;;;;;;;;;5095552;28;20271;-60
2023/01/18 03:10:58;;;;;;;4.78;4.15;;;;;;;;;;5095738;28;20194;-60
2023/01/18 03:13:28;;;;;;;7.40;5.10;;;;;;;;;;5095564;28;20236;-61
2023/01/18 03:15:58;;;;;;;5.72;4.75;;;;;;;;;;5095546;28;20544;-60
2023/01/18 03:18:29;;;;;;;5.70;4.20;;;;;;;;;;5095798;28;20197;-59
2023/01/18 03:20:57;;;;;;;5.68;4.80;;;;;;;;;;5095694;28;20243;-60
2023/01/18 03:23:38;;;;;;;5.45;4.78;;;;;;;;;;5095200;28;20194;-60
2023/01/18 03:26:06;;;;;;;4.90;4.40;;;;;;;;;;5095458;28;20235;-60
2023/01/18 03:34:15;;;;;;;6.95;4.25;;;;;;;;;;5095273;28;20187;-60
2023/01/18 03:36:46;;;;;;;4.70;4.22;;;;;;;;;;5095108;28;20220;-60
2023/01/18 03:39:17;;;;;;;5.03;4.40;;;;;;;;;;5095564;28;20197;-60
2023/01/18 03:41:46;;;;;;;3.42;3.20;;;;;;;;;;5095300;28;20193;-60
2023/01/18 03:44:15;;;;;;;3.90;3.60;;;;;;;;;;5094991;28;20576;-60
2023/01/18 03:46:43;;;;;;;4.70;4.30;;;;;;;;;;5094930;28;20720;-59
2023/01/18 03:49:11;;;;;;;4.38;3.97;;;;;;;;;;5094757;28;20216;-60
2023/01/18 03:51:46;;;;;;;4.35;4.05;;;;;;;;;;5094886;28;20646;-60
2023/01/18 03:54:17;;;;;;;11.52;3.90;;;;;;;;;;5095023;28;20196;-59
2023/01/18 03:56:46;;;;;;;4.50;4.10;;;;;;;;;;5094933;28;20199;-59
2023/01/18 03:59:14;;;;;;;6.20;3.80;;;;;;;;;;5095092;28;20194;-60
2023/01/18 04:01:43;;;;;;;4.20;3.72;;;;;;;;;;5094622;28;20193;-60
2023/01/18 04:04:11;;;;;;;4.90;4.15;;;;;;;;;;5094780;28;20199;-60
2023/01/18 04:06:38;;;;;;;3.97;3.65;;;;;;;;;;5094741;28;20663;-59
2023/01/18 04:09:07;;;;;;;4.40;4.00;;;;;;;;;;5094791;28;20210;-60
2023/01/18 04:11:34;;;;;;;5.22;4.10;;;;;;;;;;5094467;28;20228;-60
2023/01/18 04:14:00;;;;;;;4.82;4.05;;;;;;;;;;5094415;28;20282;-59
2023/01/18 04:16:27;;;;;;;4.25;3.95;;;;;;;;;;5094318;28;20193;-59
2023/01/18 04:18:54;;;;;;;4.18;3.83;;;;;;;;;;5094658;28;20552;-59
2023/01/18 04:21:23;;;;;;;3.83;3.55;;;;;;;;;;5094426;28;20193;-59
2023/01/18 04:23:50;;;;;;;4.80;4.40;;;;;;;;;;5094247;28;20683;-59
2023/01/18 04:26:18;;;;;;;5.18;4.28;;;;;;;;;;5094322;28;20285;-60
2023/01/18 04:28:45;;;;;;;4.53;3.75;;;;;;;;;;5093916;28;20191;-60
2023/01/18 04:31:11;;;;;;;4.68;4.05;;;;;;;;;;5094289;28;20224;-59
2023/01/18 04:33:38;;;;;;;5.10;4.05;;;;;;;;;;5093247;28;20197;-60
2023/01/18 04:36:06;;;;;;;9.20;4.18;;;;;;;;;;5094068;28;20186;-59
2023/01/18 04:38:34;;;;;;;4.65;4.25;;;;;;;;;;5093939;28;20193;-59
2023/01/18 04:41:03;;;;;;;7.15;4.03;;;;;;;;;;5093856;28;20192;-60
2023/01/18 04:43:30;;;;;;;4.82;4.30;;;;;;;;;;5093591;28;20281;-60
2023/01/18 04:45:57;;;;;;;6.97;4.18;;;;;;;;;;5094125;28;20226;-59
2023/01/18 04:48:24;;;;;;;4.85;4.45;;;;;;;;;;5093925;28;20192;-59
2023/01/18 04:50:52;;;;;;;6.20;4.45;;;;;;;;;;5093729;28;20308;-59
2023/01/18 04:53:19;;;;;;;5.28;4.78;;;;;;;;;;5093722;28;20193;-60
2023/01/18 04:55:47;;;;;;;6.30;5.60;;;;;;;;;;5093698;28;20196;-59
2023/01/18 04:58:14;;;;;;;7.70;5.82;;;;;;;;;;5093568;28;20670;-59
2023/01/18 05:00:41;;;;;;;6.20;4.60;;;;;;;;;;5094004;28;20190;-59
2023/01/18 05:03:08;;;;;;;4.53;4.00;;;;;;;;;;5093540;28;20203;-59
2023/01/18 05:05:35;;;;;;;5.13;4.63;;;;;;;;;;5093602;28;20195;-59
2023/01/18 05:08:02;;;;;;;7.47;4.45;;;;;;;;;;5093637;28;20194;-60
2023/01/18 05:10:29;;;;;;;7.60;4.00;;;;;;;;;;5093026;28;20213;-59
2023/01/18 05:12:58;;;;;;;8.07;4.38;;;;;;;;;;5093461;28;20193;-60
2023/01/18 05:15:25;;;;;;;7.60;4.93;;;;;;;;;;5093361;28;20281;-59
2023/01/18 05:17:51;;;;;;;4.20;3.90;;;;;;;;;;5093281;28;20189;-60
2023/01/18 05:20:19;;;;;;;5.57;4.38;;;;;;;;;;5093241;28;20623;-59
2023/01/18 05:22:45;;;;;;;4.80;4.30;;;;;;;;;;5093105;28;20279;-60
2023/01/18 05:25:12;;;;;;;9.52;4.47;;;;;;;;;;5092973;28;20279;-60
2023/01/18 05:27:39;;;;;;;8.30;5.18;;;;;;;;;;5093171;28;20284;-60
2023/01/18 05:30:09;;;;;;;6.00;4.20;;;;;;;;;;5093060;28;20648;-60
2023/01/18 05:32:36;;;;;;;6.25;4.90;;;;;;;;;;5093042;28;20554;-59
2023/01/18 05:35:03;;;;;;;3.92;3.53;;;;;;;;;;5092967;28;20194;-59
2023/01/18 05:37:30;;;;;;;8.73;4.18;;;;;;;;;;5092863;28;20280;-60
2023/01/18 05:39:57;;;;;;;10.65;5.15;;;;;;;;;;5093497;28;20642;-59
2023/01/18 05:42:24;;;;;;;8.02;4.25;;;;;;;;;;5092873;28;20588;-59
2023/01/18 05:44:51;;;;;;;7.07;4.82;;;;;;;;;;5092438;28;20313;-60
2023/01/18 05:47:20;;;;;;;4.60;4.05;;;;;;;;;;5092867;28;20194;-60
2023/01/18 05:49:46;;;;;;;6.30;4.78;;;;;;;;;;5092688;28;20209;-59
2023/01/18 05:52:13;;;;;;;4.72;3.90;;;;;;;;;;5092510;28;20652;-60
2023/01/18 05:54:40;;;;;;;4.85;4.50;;;;;;;;;;5092817;28;20285;-60
2023/01/18 05:57:07;;;;;;;6.78;4.30;;;;;;;;;;5092819;28;20190;-60
2023/01/18 05:59:34;;;;;;;6.50;3.83;;;;;;;;;;5092759;28;20196;-59
2023/01/18 06:02:01;;;;;;;6.30;3.00;;;;;;;;;;5092662;28;20208;-60
2023/01/18 06:04:29;;;;;;;5.88;4.05;;;;;;;;;;5092656;28;20259;-60
2023/01/18 06:06:56;;;;;;;4.65;3.72;;;;;;;;;;5092468;28;20281;-59
2023/01/18 06:09:23;;;;;;;3.90;3.60;;;;;;;;;;5092562;28;20193;-59
2023/01/18 06:11:50;;;;;;;5.85;3.97;;;;;;;;;;5092692;28;20282;-59
2023/01/18 06:14:17;;;;;;;6.75;3.60;;;;;;;;;;5092797;28;20200;-59
2023/01/18 06:16:44;;;;;;;5.28;3.90;;;;;;;;;;5092560;28;20190;-60
2023/01/18 06:19:11;;;;;;;4.10;3.75;;;;;;;;;;5092450;28;20278;-60
2023/01/18 06:21:39;;;;;;;5.80;3.45;;;;;;;;;;5092669;28;20549;-59
2023/01/18 06:24:07;;;;;;;4.10;3.80;;;;;;;;;;5092678;28;20621;-59
2023/01/18 06:26:34;;;;;;;4.82;4.28;;;;;;;;;;5092527;28;20276;-60
2023/01/18 06:29:02;;;;;;;7.70;3.75;;;;;;;;;;5092469;28;20232;-60
2023/01/18 06:31:29;;;;;;;3.72;3.38;;;;;;;;;;5092297;28;20217;-59
2023/01/18 06:33:55;;;;;;;4.45;3.53;;;;;;;;;;5092201;28;20276;-59
2023/01/18 06:36:23;;;;;;;5.03;2.70;;;;;;;;;;5092455;28;20193;-60
2023/01/18 06:38:51;;;;;;;4.03;2.85;;;;;;;;;;5092401;28;20194;-59
2023/01/18 06:41:18;;;;;;;5.53;3.05;;;;;;;;;;5092333;28;20290;-60
2023/01/18 06:43:45;;;;;;;3.97;3.58;;;;;;;;;;5092136;28;20278;-59
2023/01/18 06:46:12;;;;;;;8.80;3.53;;;;;;;;;;5092277;28;20547;-60
2023/01/18 06:48:39;;;;;;;5.00;3.38;;;;;;;;;;5092101;28;20417;-59
2023/01/18 06:51:06;;;;;;;5.35;2.88;;;;;;;;;;5092157;28;20219;-59
2023/01/18 06:53:33;;;;;;;4.40;4.00;;;;;;;;;;5092273;28;20199;-59
2023/01/18 06:56:01;;;;;;;7.57;4.13;;;;;;;;;;5092217;28;20198;-59
2023/01/18 06:58:29;;;;;;;5.55;3.75;;;;;;;;;;5094870;28;20267;-60
2023/01/18 07:00:57;;;;;;;6.82;3.58;;;;;;;;;;5095712;28;20200;-59
2023/01/18 07:03:24;;;;;;;4.10;3.55;;;;;;;;;;5095915;28;20195;-59
2023/01/18 07:05:52;;;;;;;4.95;3.47;;;;;;;;;;5095837;28;20250;-59
2023/01/18 07:08:20;;;;;;;3.50;3.20;;;;;;;;;;5095607;28;20190;-59
2023/01/18 07:10:47;;;;;;;4.30;3.63;;;;;;;;;;5095627;28;20213;-59
2023/01/18 07:13:15;;;;;;;4.10;3.30;;;;;;;;;;5095536;28;20622;-60
2023/01/18 07:15:42;;;;;;;9.88;3.65;;;;;;;;;;5095427;28;20189;-59
2023/01/18 07:18:09;;;;;;;12.32;3.85;;;;;;;;;;5095686;28;20233;-60
2023/01/18 07:20:36;;;;;;;4.40;3.42;;;;;;;;;;5095627;28;20774;-59
2023/01/18 07:23:03;;;;;;;5.85;3.10;;;;;;;;;;5095474;28;20281;-60
2023/01/18 07:25:30;;;;;;;5.20;2.97;;;;;;;;;;5095607;28;20198;-59
2023/01/18 07:27:58;;;;;;;3.22;3.03;;;;;;;;;;5095398;28;20623;-60
2023/01/18 07:30:26;;;;;;;7.78;3.80;;;;;;;;;;5095410;28;20224;-59
2023/01/18 07:32:53;;;;;;;3.78;3.47;;;;;;;;;;5085519;28;20185;-59
2023/01/18 07:35:21;;;;;;;4.72;3.38;;;;;;;;;;5087181;28;20189;-59
2023/01/18 07:37:49;;;;;;;4.00;3.60;;;;;;;;;;5085486;28;20200;-60
2023/01/18 07:40:16;;;;;;;5.68;3.85;;;;;;;;;;5080995;28;20838;-60
2023/01/18 07:42:43;;;;;;;4.03;3.72;;;;;;;;;;5076081;28;20629;-57
2023/01/18 07:45:10;;;;;;;5.68;4.72;;;;;;;;;;5083888;28;20943;-55
2023/01/18 07:47:39;;;;;;;5.45;4.85;;;;;;;;;;5095003;28;20201;-54
2023/01/18 07:50:06;;;;;;;8.70;4.80;;;;;;;;;;5094879;28;20807;-53
2023/01/18 07:52:33;;;;;;;4.43;4.03;;;;;;;;;;5094677;28;20251;-55
2023/01/18 07:55:00;;;;;;;6.07;4.07;;;;;;;;;;5094657;28;20193;-56
2023/01/18 07:57:27;;;;;;;3.75;2.80;;;;;;;;;;5087623;28;20191;-53
2023/01/18 07:59:54;;;;;;;3.15;2.88;;;;;;;;;;5084046;28;20654;-56
2023/01/18 08:02:21;;;;;;;3.50;2.83;;;;;;;;;;5083490;28;20190;-53
2023/01/18 08:04:49;;;;;;;7.78;2.55;;;;;;;;;;5082811;28;20186;-52
2023/01/18 08:07:17;;;;;;;3.40;3.20;;;;;;;;;;5088612;28;20185;-51
2023/01/18 08:09:44;;;;;;;2.90;2.70;;;;;;;;;;5094266;28;20199;-55
2023/01/18 08:12:12;;;;;;;4.05;3.00;;;;;;;;;;5093441;28;20467;-61
2023/01/18 08:14:40;;;;;;;6.15;2.30;;;;;;;;;;5094488;28;20201;-62
2023/01/18 08:17:07;;;;;;;5.88;2.67;;;;;;;;;;5094058;28;20190;-60
2023/01/18 08:19:34;;;;;;;3.95;3.40;;;;;;;;;;5094043;28;20201;-63
2023/01/18 08:22:03;;;;;;;3.08;2.72;;;;;;;;;;5084991;28;20273;-60
2023/01/18 08:24:30;;;;;;;3.35;2.55;;;;;;;;;;5082421;28;20190;-61
2023/01/18 08:26:57;;;;;;;9.43;3.13;;;;;;;;;;5087953;28;20672;-62
2023/01/18 08:29:24;;;;;;;6.72;3.75;;;;;;;;;;5094247;28;20191;-60
2023/01/18 08:31:52;;;;;;;5.28;3.10;;;;;;;;;;5093156;28;20534;-63
2023/01/18 08:34:20;;;;;;;8.13;2.97;;;;;;;;;;5093575;28;20456;-63
2023/01/18 08:36:49;;;;;;;3.40;2.65;;;;;;;;;;5093716;28;20507;-60
2023/01/18 08:39:18;;;;;;;3.70;2.78;;;;;;;;;;5093806;28;20729;-61
2023/01/18 08:41:45;;;;;;;3.20;2.90;;;;;;;;;;5093808;28;20539;-60
2023/01/18 08:44:12;;;;;;;7.07;2.67;;;;;;;;;;5093521;28;20221;-63
2023/01/18 08:46:40;;;;;;;3.05;2.40;;;;;;;;;;5093730;28;20194;-53
2023/01/18 08:49:06;;;;;;;4.88;2.92;;;;;;;;;;5093585;28;20202;-60
2023/01/18 08:51:33;;;;;;;6.35;4.43;;;;;;;;;;5081873;28;20298;-63
2023/01/18 08:54:00;;;;;;;11.23;7.00;;;;;;;;;;5083816;28;20203;-59
2023/01/18 08:56:29;;;;;;;7.27;5.40;;;;;;;;;;5082251;28;20637;-65
2023/01/18 08:58:56;;;;;;;11.07;6.10;;;;;;;;;;5084313;28;20455;-67
2023/01/18 09:01:23;;;;;;;7.32;3.67;;;;;;;;;;5093343;28;20248;-60
2023/01/18 09:03:50;;;;;;;3.58;2.95;;;;;;;;;;5093187;28;20194;-61
2023/01/18 09:06:18;;;;;;;7.20;3.05;;;;;;;;;;5093406;28;20281;-70
2023/01/18 09:08:47;;;;;;;3.95;2.88;;;;;;;;;;5093275;28;20248;-69
2023/01/18 09:11:14;;;;;;;5.72;3.20;;;;;;;;;;5087101;28;20234;-70
2023/01/18 09:13:42;;;;;;;4.65;3.33;;;;;;;;;;5081421;28;20618;-67
2023/01/18 09:16:10;;;;;;;8.55;3.03;;;;;;;;;;5082535;28;20264;-69
2023/01/18 09:18:38;;;;;;;5.35;2.83;;;;;;;;;;5089227;28;20270;-59
2023/01/18 09:21:06;;;;;;;11.00;4.03;;;;;;;;;;5092817;28;20277;-61
2023/01/18 09:23:33;;;;;;;6.03;4.15;;;;;;;;;;5093242;28;20239;-68
2023/01/18 09:26:04;;;;;;;9.68;7.50;;;;;;;;;;5093048;28;20589;-61
2023/01/18 09:28:31;;;;;;;9.82;7.65;;;;;;;;;;5083599;28;20185;-65
2023/01/18 09:31:01;;;;;;;10.10;8.90;;;;;;;;;;5081130;28;20215;-71
2023/01/18 09:33:28;;;;;;;12.18;9.18;;;;;;;;;;5072274;28;20238;-61
2023/01/18 09:35:56;;;;;;;7.90;5.45;;;;;;;;;;5075009;28;20279;-60
2023/01/18 09:38:23;;;;;;;9.02;3.10;;;;;;;;;;5083208;28;20182;-66
2023/01/18 09:40:51;;;;;;;4.90;3.28;;;;;;;;;;5089501;28;20838;-67
2023/01/18 09:43:20;;;;;;;3.00;2.80;;;;;;;;;;5092469;28;20189;-60
2023/01/18 09:45:47;;;;;;;5.45;3.55;;;;;;;;;;5042886;28;20200;-59
2023/01/18 09:48:24;;;;;;;3.58;3.20;;;;;;;;;;5041789;28;20271;-67
2023/01/18 09:50:52;;;;;;;8.35;3.50;;;;;;;;;;5032069;28;20219;-68
2023/01/18 09:53:23;;;;;;;3.05;2.60;;;;;;;;;;5037602;28;20196;-64
2023/01/18 09:55:53;;;;;;;5.32;2.65;;;;;;;;;;5032020;28;20188;-61
2023/01/18 09:58:29;;;;;;;2.60;2.40;;;;;;;;;;5037300;28;20234;-61
2023/01/18 10:00:59;;;;;;;4.72;3.10;;;;;;;;;;5042772;28;20283;-71
2023/01/18 10:03:32;;;;;;;4.28;3.78;;;;;;;;;;5031891;28;20541;-61
2023/01/18 10:06:08;;;;;;;4.90;4.40;;;;;;;;;;5031271;28;20956;-61
2023/01/18 10:08:37;;;;;;;2.92;2.72;;;;;;;;;;5032213;28;20195;-67
2023/01/18 10:11:07;;;;;;;4.47;3.53;;;;;;;;;;5034610;28;20258;-66
2023/01/18 10:13:39;;;;;;;9.65;4.05;;;;;;;;;;5041427;28;20548;-68
2023/01/18 10:16:13;;;;;;;8.13;4.50;;;;;;;;;;5040460;28;20281;-64
2023/01/18 10:18:44;;;;;;;5.05;2.92;;;;;;;;;;5039668;28;20218;-63
2023/01/18 10:21:15;;;;;;;6.03;2.75;;;;;;;;;;5040972;28;20619;-61
2023/01/18 10:23:47;;;;;;;4.35;3.40;;;;;;;;;;5041900;28;20607;-62
2023/01/18 10:26:17;;;;;;;3.22;3.03;;;;;;;;;;5042627;28;20234;-61
2023/01/18 10:28:50;;;;;;;4.32;3.65;;;;;;;;;;5041862;28;20272;-61
2023/01/18 10:31:26;;;;;;;5.20;3.33;;;;;;;;;;5039653;28;20210;-60
2023/01/18 10:33:56;;;;;;;4.35;3.88;;;;;;;;;;5040978;28;20196;-63
2023/01/18 10:36:25;;;;;;;3.42;3.13;;;;;;;;;;5036159;28;20188;-68
2023/01/18 10:38:54;;;;;;;5.88;3.65;;;;;;;;;;5039898;28;20448;-62
2023/01/18 10:41:24;;;;;;;4.20;3.90;;;;;;;;;;5046141;28;20643;-61
2023/01/18 10:43:52;;;;;;;6.53;3.25;;;;;;;;;;5052872;28;20243;-60
2023/01/18 10:46:19;;;;;;;6.45;4.53;;;;;;;;;;5086143;28;20449;-60
2023/01/18 10:48:47;;;;;;;8.05;5.03;;;;;;;;;;5095679;28;20201;-61
2023/01/18 10:51:26;;;;;;;4.38;3.97;;;;;;;;;;5095632;28;20581;-60
2023/01/18 10:53:53;;;;;;;5.32;4.20;;;;;;;;;;5095424;28;20277;-60
2023/01/18 10:56:23;;;;;;;6.50;4.40;;;;;;;;;;5095437;28;20584;-57
2023/01/18 10:58:53;;;;;;;5.32;4.50;;;;;;;;;;5095533;28;20198;-57
2023/01/18 11:01:22;;;;;;;4.85;4.32;;;;;;;;;;5095297;28;20191;-64
2023/01/18 11:03:50;;;;;;;5.30;4.15;;;;;;;;;;5095320;28;20721;-63
2023/01/18 11:06:19;;;;;;;9.02;4.45;;;;;;;;;;5095165;28;20201;-60
2023/01/18 11:08:47;;;;;;;4.70;4.38;;;;;;;;;;5095001;28;20710;-61
2023/01/18 11:11:17;;;;;;;7.15;4.18;;;;;;;;;;5085558;28;20207;-61
2023/01/18 11:13:45;;;;;;;4.57;3.97;;;;;;;;;;5084568;28;20719;-59
2023/01/18 11:16:14;;;;;;;5.10;3.83;;;;;;;;;;5083456;28;20282;-59
2023/01/18 11:18:58;;;;;;;4.43;4.03;;;;;;;;;;5085037;28;20232;-58
2023/01/18 11:21:25;;;;;;;5.60;3.75;;;;;;;;;;5084496;28;20249;-58
2023/01/18 11:23:54;;;;;;;4.25;3.75;;;;;;;;;;5083252;28;20205;-59
2023/01/18 11:26:22;;;;;;;4.90;3.88;;;;;;;;;;5079451;28;20194;-58
2023/01/18 11:28:53;;;;;;;4.30;3.83;;;;;;;;;;5074576;28;20286;-58
2023/01/18 11:31:21;;;;;;;6.47;3.85;;;;;;;;;;5074448;28;20652;-57
2023/01/18 11:33:50;;;;;;;4.53;3.50;;;;;;;;;;5074412;28;20186;-58
2023/01/18 11:36:19;;;;;;;5.05;3.60;;;;;;;;;;5074636;28;20188;-54
2023/01/18 11:38:47;;;;;;;4.57;3.30;;;;;;;;;;5074379;28;20213;-61
2023/01/18 11:41:16;;;;;;;3.50;2.70;;;;;;;;;;5074444;28;20198;-61
2023/01/18 11:43:58;;;;;;;4.40;4.00;;;;;;;;;;5073580;28;20473;-60
2023/01/18 11:46:33;;;;;;;3.63;3.35;;;;;;;;;;5074118;28;20278;-60
2023/01/18 11:49:04;;;;;;;8.10;3.20;;;;;;;;;;5073942;28;20616;-60
2023/01/18 11:51:32;;;;;;;5.82;3.60;;;;;;;;;;5081085;28;20221;-55
2023/01/18 11:54:03;;;;;;;3.40;3.13;;;;;;;;;;5073356;28;20198;-61
2023/01/18 11:56:34;;;;;;;7.78;3.72;;;;;;;;;;5074068;28;20200;-63
2023/01/18 11:59:02;;;;;;;3.88;3.20;;;;;;;;;;5074011;28;20653;-65
2023/01/18 12:01:46;;;;;;;5.22;4.07;;;;;;;;;;5074187;28;20563;-63
2023/01/18 12:04:18;;;;;;;3.72;3.25;;;;;;;;;;5073960;28;20192;-59
2023/01/18 12:06:53;;;;;;;5.95;3.92;;;;;;;;;;5073902;28;20666;-61
2023/01/18 12:09:28;;;;;;;3.72;3.28;;;;;;;;;;5073501;28;20257;-61
2023/01/18 12:12:02;;;;;;;3.85;3.40;;;;;;;;;;5073789;28;20219;-61
2023/01/18 12:14:37;;;;;;;5.80;4.20;;;;;;;;;;5073769;28;20237;-66
2023/01/18 12:17:11;;;;;;;5.13;4.15;;;;;;;;;;5073364;28;20203;-60
2023/01/18 12:19:55;;;;;;;4.70;4.30;;;;;;;;;;5073261;28;20554;-63
2023/01/18 12:22:35;;;;;;;4.00;3.60;;;;;;;;;;5073150;28;20202;-61
2023/01/18 12:25:11;;;;;;;5.18;4.38;;;;;;;;;;5073425;28;20541;-60
2023/01/18 12:27:42;;;;;;;4.53;4.13;;;;;;;;;;5073378;28;20284;-59
2023/01/18 12:30:22;;;;;;;5.93;4.35;;;;;;;;;;5073312;28;20290;-60
2023/01/18 12:33:01;;;;;;;5.15;4.55;;;;;;;;;;5073362;28;20219;-64
2023/01/18 12:35:39;;;;;;;5.20;3.75;;;;;;;;;;5073344;28;20278;-61
2023/01/18 12:38:09;;;;;;;4.75;4.25;;;;;;;;;;5073129;28;20187;-60
2023/01/18 12:40:41;;;;;;;4.63;3.85;;;;;;;;;;5072918;28;20199;-60
2023/01/18 12:43:15;;;;;;;6.18;4.43;;;;;;;;;;5073421;28;20196;-64
2023/01/18 12:45:43;;;;;;;5.90;4.80;;;;;;;;;;5072938;28;20762;-62
2023/01/18 12:48:15;;;;;;;7.95;7.20;;;;;;;;;;5073208;28;20194;-61
2023/01/18 12:50:43;;;;;;;8.27;7.45;;;;;;;;;;5072866;28;20299;-57
2023/01/18 12:53:12;;;;;;;11.25;5.65;;;;;;;;;;5072770;28;20288;-60
2023/01/18 12:55:40;;;;;;;6.32;5.10;;;;;;;;;;5072196;28;20304;-65
2023/01/18 12:58:10;;;;;;;7.53;6.40;;;;;;;;;;5075569;28;20191;-55
2023/01/18 13:00:40;;;;;;;6.88;5.70;;;;;;;;;;5078267;28;20178;-67
2023/01/18 13:03:10;;;;;;;9.15;6.50;;;;;;;;;;5082354;28;20198;-60
2023/01/18 13:05:42;;;;;;;6.50;5.60;;;;;;;;;;5078129;28;20191;-62
2023/01/18 13:08:13;;;;;;;7.30;5.93;;;;;;;;;;5072789;28;20271;-67
2023/01/18 13:10:40;;;;;;;8.82;5.90;;;;;;;;;;5072827;28;20260;-68
2023/01/18 13:13:07;;;;;;;6.28;4.85;;;;;;;;;;5072576;28;20219;-67
2023/01/18 13:15:39;;;;;;;6.60;5.90;;;;;;;;;;5072649;28;20196;-66
2023/01/18 13:18:10;;;;;;;8.65;7.05;;;;;;;;;;5072483;28;20278;-62
2023/01/18 13:20:44;;;;;;;6.68;5.47;;;;;;;;;;5072609;28;20195;-60
2023/01/18 13:23:16;;;;;;;6.15;5.47;;;;;;;;;;5072686;28;20571;-60
2023/01/18 13:25:47;;;;;;;7.45;6.53;;;;;;;;;;5072476;28;20199;-61
2023/01/18 13:28:18;;;;;;;10.27;6.35;;;;;;;;;;5072491;28;20615;-60
2023/01/18 13:30:51;;;;;;;8.05;5.85;;;;;;;;;;5072181;28;20454;-60
2023/01/18 13:33:22;;;;;;;7.32;6.10;;;;;;;;;;5071666;28;21016;-67
2023/01/18 13:35:50;;;;;;;6.47;5.75;;;;;;;;;;5072420;28;20191;-60
2023/01/18 13:38:20;;;;;;;8.85;6.70;;;;;;;;;;5071590;28;20450;-66
2023/01/18 13:40:53;;;;;;;8.90;6.25;;;;;;;;;;5072230;28;20237;-61
2023/01/18 13:43:30;;;;;;;8.70;5.80;;;;;;;;;;5072518;28;20227;-60
2023/01/18 13:46:01;;;;;;;8.35;6.55;;;;;;;;;;5072433;28;20198;-68
2023/01/18 13:48:40;;;;;;;10.48;7.00;;;;;;;;;;5072053;28;20195;-67
2023/01/18 13:51:08;;;;;;;8.00;6.05;;;;;;;;;;5072184;28;20196;-60
2023/01/18 13:53:48;;;;;;;12.02;6.32;;;;;;;;;;5072120;28;20218;-65
2023/01/18 13:56:33;;;;;;;7.65;5.85;;;;;;;;;;5072322;28;20559;-66
2023/01/18 13:59:02;;;;;;;6.63;5.90;;;;;;;;;;5072497;28;20525;-72
2023/01/18 14:01:32;;;;;;;8.02;6.18;;;;;;;;;;5071839;28;20289;-63
2023/01/18 14:04:06;;;;;;;8.75;6.40;;;;;;;;;;5071959;28;20577;-63
2023/01/18 14:06:35;;;;;;;10.65;5.53;;;;;;;;;;5073821;28;20743;-64
2023/01/18 14:09:04;;;;;;;9.00;6.70;;;;;;;;;;5076271;28;20239;-65
2023/01/18 14:11:33;;;;;;;18.50;8.13;;;;;;;;;;5076378;28;20380;-64
2023/01/18 14:14:01;;;;;;;8.68;6.93;;;;;;;;;;5075880;28;20219;-51
2023/01/18 14:16:29;;;;;;;8.30;6.82;;;;;;;;;;5075939;28;20234;-51
2023/01/18 14:18:57;;;;;;;7.55;6.68;;;;;;;;;;5075734;28;20285;-51
2023/01/18 14:21:28;;;;;;;6.25;5.65;;;;;;;;;;5075496;28;20202;-51
2023/01/18 14:24:19;;;;;;;6.53;5.93;;;;;;;;;;5076289;28;20195;-51
2023/01/18 14:26:46;;;;;;;8.57;6.80;;;;;;;;;;5060509;28;20269;-52
2023/01/18 14:29:16;;;;;;;8.18;5.80;;;;;;;;;;5075818;28;20194;-50
2023/01/18 14:31:46;;;;;;;7.78;5.65;;;;;;;;;;5075819;28;20620;-57
2023/01/18 14:34:35;;;;;;;9.95;6.35;;;;;;;;;;5075706;28;20223;-52
2023/01/18 14:37:04;;;;;;;11.00;6.65;;;;;;;;;;5075527;28;20187;-52
2023/01/18 14:39:32;;;;;;;7.97;5.88;;;;;;;;;;5075428;28;20221;-50
2023/01/18 14:42:00;;;;;;;10.98;6.22;;;;;;;;;;5075248;28;20661;-50
2023/01/18 14:44:29;;;;;;;7.93;5.97;;;;;;;;;;5075279;28;20254;-51
2023/01/18 14:46:57;;;;;;;6.75;5.90;;;;;;;;;;5075215;28;20197;-50
2023/01/18 14:49:26;;;;;;;14.45;6.18;;;;;;;;;;5075341;28;20199;-53
2023/01/18 14:51:53;;;;;;;6.63;5.82;;;;;;;;;;5075102;28;20195;-51
2023/01/18 14:54:23;;;;;;;6.53;5.88;;;;;;;;;;5075436;28;20223;-51
2023/01/18 14:56:51;;;;;;;11.57;6.45;;;;;;;;;;5075576;28;20195;-52
2023/01/18 14:59:19;;;;;;;7.05;6.35;;;;;;;;;;5075232;28;20640;-50
2023/01/18 15:01:51;;;;;;;7.60;6.15;;;;;;;;;;5075225;28;20191;-54
2023/01/18 15:04:19;;;;;;;8.98;6.07;;;;;;;;;;5074653;28;20196;-52
2023/01/18 15:06:48;;;;;;;9.82;5.20;;;;;;;;;;5075090;28;20286;-51
2023/01/18 15:09:15;;;;;;;7.22;5.03;;;;;;;;;;5075095;28;20210;-50
2023/01/18 15:11:44;;;;;;;11.57;5.68;;;;;;;;;;5074927;28;20278;-53
2023/01/18 15:14:14;;;;;;;6.57;4.78;;;;;;;;;;5074872;28;20309;-51
2023/01/18 15:16:41;;;;;;;8.68;6.07;;;;;;;;;;5074662;28;20392;-50
2023/01/18 15:19:12;;;;;;;8.07;5.85;;;;;;;;;;5074229;28;20197;-51
2023/01/18 15:21:39;;;;;;;5.68;5.13;;;;;;;;;;5074877;28;20206;-52